createdAt,value
2022-09-16T00:00:53.845Z,6.77
2022-09-16T00:02:15.385Z,5.99
2022-09-16T00:03:36.444Z,6.06
2022-09-16T00:04:57.470Z,6.74
2022-09-16T00:06:26.361Z,5.21
2022-09-16T00:07:47.443Z,5.23
2022-09-16T00:09:09.204Z,4.83
2022-09-16T00:10:30.667Z,5.47
2022-09-16T00:11:52.918Z,6.90
2022-09-16T00:13:14.705Z,5.23
2022-09-16T00:14:35.997Z,5.92
2022-09-16T00:15:57.461Z,5.89
2022-09-16T00:17:18.931Z,5.50
2022-09-16T00:18:40.580Z,7.08
2022-09-16T00:20:02.045Z,7.62
2022-09-16T00:21:24.068Z,7.46
2022-09-16T00:22:45.450Z,5.93
2022-09-16T00:24:07.059Z,5.99
2022-09-16T00:25:28.451Z,4.77
2022-09-16T00:26:49.987Z,5.61
2022-09-16T00:28:11.399Z,5.64
2022-09-16T00:29:33.071Z,4.59
2022-09-16T00:30:59.867Z,4.43
2022-09-16T00:32:20.903Z,4.19
2022-09-16T00:33:42.042Z,4.23
2022-09-16T00:35:03.854Z,4.51
2022-09-16T00:36:25.919Z,4.31
2022-09-16T00:37:47.277Z,3.42
2022-09-16T00:39:08.288Z,3.78
2022-09-16T00:40:29.642Z,4.16
2022-09-16T00:41:51.047Z,4.21
2022-09-16T00:44:58.571Z,4.88
2022-09-16T00:46:33.922Z,4.56
2022-09-16T00:47:57.111Z,3.57
2022-09-16T00:49:21.637Z,3.62
2022-09-16T00:50:46.656Z,3.83
2022-09-16T00:52:08.243Z,3.86
2022-09-16T00:53:32.690Z,3.34
2022-09-16T00:54:54.003Z,4.37
2022-09-16T00:56:16.605Z,4.69
2022-09-16T00:57:38.612Z,4.69
2022-09-16T00:59:08.932Z,2.76
2022-09-16T01:00:30.447Z,3.84
2022-09-16T01:01:53.209Z,4.21
2022-09-16T01:03:14.370Z,4.28
2022-09-16T01:04:38.465Z,4.51
2022-09-16T01:05:59.727Z,4.77
2022-09-16T01:08:37.841Z,4.64
2022-09-16T01:09:59.279Z,5.09
2022-09-16T01:11:20.778Z,5.06
2022-09-16T01:12:42.873Z,5.29
2022-09-16T01:14:04.245Z,6.03
2022-09-16T01:15:32.262Z,4.51
2022-09-16T01:16:57.580Z,4.08
2022-09-16T01:18:28.727Z,6.27
2022-09-16T01:19:56.629Z,4.54
2022-09-16T01:21:42.945Z,4.72
2022-09-16T01:23:10.928Z,4.16
2022-09-16T01:24:41.486Z,4.29
2022-09-16T01:26:21.539Z,4.02
2022-09-16T01:28:08.725Z,5.54
2022-09-16T01:29:52.938Z,4.11
2022-09-16T01:31:37.951Z,5.26
2022-09-16T01:33:17.036Z,5.50
2022-09-16T01:36:19.119Z,6.47
2022-09-16T01:37:56.255Z,3.93
2022-09-16T01:39:21.597Z,5.49
2022-09-16T01:41:01.600Z,4.70
2022-09-16T01:42:46.696Z,5.56
2022-09-16T01:45:55.868Z,5.11
2022-09-16T01:47:21.109Z,6.09
2022-09-16T01:50:06.923Z,6.05
2022-09-16T01:51:37.719Z,5.22
2022-09-16T01:53:19.019Z,5.49
2022-09-16T01:56:20.360Z,5.24
2022-09-16T01:57:51.010Z,6.71
2022-09-16T01:59:18.668Z,5.13
2022-09-16T02:00:40.718Z,6.92
2022-09-16T02:03:17.461Z,8.72
2022-09-16T02:05:57.895Z,5.08
2022-09-16T02:07:20.891Z,6.88
2022-09-16T02:08:45.362Z,5.93
2022-09-16T02:11:26.505Z,5.24
2022-09-16T02:12:49.956Z,4.90
2022-09-16T02:14:16.557Z,5.89
2022-09-16T02:15:38.392Z,5.99
2022-09-16T02:17:01.702Z,6.05
2022-09-16T02:18:25.094Z,6.70
2022-09-16T02:19:49.239Z,7.51
2022-09-16T02:21:12.963Z,5.75
2022-09-16T02:22:38.109Z,5.67
2022-09-16T02:24:01.011Z,5.89
2022-09-16T02:25:23.810Z,6.11
2022-09-16T02:26:57.690Z,7.07
2022-09-16T02:28:21.639Z,5.92
2022-09-16T02:29:51.945Z,4.95
2022-09-16T02:31:13.563Z,5.04
2022-09-16T02:32:36.987Z,5.53
2022-09-16T02:35:14.247Z,7.64
2022-09-16T02:36:35.677Z,7.20
2022-09-16T02:38:01.433Z,5.69
2022-09-16T02:39:26.602Z,7.36
2022-09-16T02:42:12.571Z,5.65
2022-09-16T02:43:34.211Z,5.88
2022-09-16T02:44:55.703Z,5.00
2022-09-16T02:46:29.624Z,5.28
2022-09-16T02:48:05.873Z,5.02
2022-09-16T02:49:42.635Z,5.81
2022-09-16T02:51:13.247Z,5.47
2022-09-16T02:54:18.059Z,4.26
2022-09-16T02:55:54.610Z,5.84
2022-09-16T02:57:15.977Z,6.43
2022-09-16T02:58:37.605Z,4.83
2022-09-16T02:59:58.977Z,4.34
2022-09-16T03:01:20.287Z,6.21
2022-09-16T03:02:41.474Z,4.82
2022-09-16T03:04:03.382Z,4.53
2022-09-16T03:05:29.044Z,5.27
2022-09-16T03:06:50.752Z,4.51
2022-09-16T03:08:12.112Z,3.45
2022-09-16T03:09:34.957Z,4.26
2022-09-16T03:12:43.070Z,4.66
2022-09-16T03:14:41.038Z,3.41
2022-09-16T03:16:06.044Z,4.72
2022-09-16T03:17:48.919Z,4.25
2022-09-16T03:19:22.555Z,3.71
2022-09-16T03:23:30.212Z,4.03
2022-09-16T03:25:11.743Z,4.71
2022-09-16T03:26:43.419Z,4.39
2022-09-16T03:28:11.548Z,3.18
2022-09-16T03:29:35.269Z,3.14
2022-09-16T03:32:21.336Z,4.04
2022-09-16T03:35:04.008Z,3.23
2022-09-16T03:36:28.289Z,6.14
2022-09-16T03:37:49.698Z,5.16
2022-09-16T03:39:11.281Z,3.72
2022-09-16T03:40:32.808Z,4.49
2022-09-16T03:41:53.985Z,3.84
2022-09-16T03:43:15.718Z,4.23
2022-09-16T03:44:38.394Z,4.62
2022-09-16T03:45:59.840Z,4.31
2022-09-16T03:47:21.093Z,3.59
2022-09-16T03:48:42.134Z,3.48
2022-09-16T03:50:04.351Z,4.06
2022-09-16T03:51:26.272Z,4.55
2022-09-16T03:52:47.427Z,3.86
2022-09-16T03:54:09.688Z,3.78
2022-09-16T03:55:31.108Z,3.66
2022-09-16T03:56:52.928Z,4.23
2022-09-16T03:58:14.679Z,4.83
2022-09-16T03:59:37.118Z,4.13
2022-09-16T04:00:58.849Z,5.32
2022-09-16T04:02:20.269Z,8.25
2022-09-16T04:03:41.929Z,5.59
2022-09-16T04:05:03.458Z,5.64
2022-09-16T04:06:25.491Z,5.17
2022-09-16T04:07:49.846Z,4.22
2022-09-16T04:09:12.286Z,6.92
2022-09-16T04:11:55.370Z,6.41
2022-09-16T04:13:18.179Z,6.85
2022-09-16T04:14:40.989Z,7.14
2022-09-16T04:16:03.052Z,7.20
2022-09-16T04:17:24.287Z,7.39
2022-09-16T04:18:46.662Z,4.85
2022-09-16T04:20:08.674Z,6.92
2022-09-16T04:21:29.823Z,5.46
2022-09-16T04:22:51.007Z,7.13
2022-09-16T04:24:13.522Z,5.84
2022-09-16T04:25:35.532Z,8.97
2022-09-16T04:26:58.471Z,7.53
2022-09-16T04:28:19.604Z,8.43
2022-09-16T04:29:40.831Z,8.82
2022-09-16T04:31:04.016Z,7.34
2022-09-16T04:33:49.873Z,7.61
2022-09-16T04:35:11.694Z,7.61
2022-09-16T04:37:57.681Z,8.37
2022-09-16T04:39:19.123Z,7.53
2022-09-16T04:40:41.652Z,5.68
2022-09-16T04:42:02.989Z,4.97
2022-09-16T04:43:24.315Z,7.32
2022-09-16T04:44:45.817Z,8.53
2022-09-16T04:46:07.976Z,4.74
2022-09-16T04:47:29.333Z,8.22
2022-09-16T04:48:50.725Z,8.76
2022-09-16T04:50:12.845Z,7.15
2022-09-16T04:51:34.021Z,6.72
2022-09-16T04:52:55.438Z,8.54
2022-09-16T04:54:16.760Z,11.04
2022-09-16T04:55:37.868Z,7.59
2022-09-16T04:56:59.151Z,7.53
2022-09-16T04:58:21.440Z,5.73
2022-09-16T04:59:42.707Z,7.24
2022-09-16T05:01:08.412Z,6.73
2022-09-16T05:02:29.806Z,7.77
2022-09-16T05:03:52.522Z,7.38
2022-09-16T05:06:36.725Z,7.44
2022-09-16T05:09:18.921Z,7.31
2022-09-16T05:10:40.417Z,7.80
2022-09-16T05:12:01.703Z,9.45
2022-09-16T05:13:23.358Z,7.76
2022-09-16T05:14:44.972Z,9.47
2022-09-16T05:16:08.272Z,6.26
2022-09-16T05:17:49.743Z,9.26
2022-09-16T05:20:21.205Z,7.58
2022-09-16T05:21:42.520Z,7.00
2022-09-16T05:23:03.712Z,7.72
2022-09-16T05:24:24.997Z,9.02
2022-09-16T05:25:46.582Z,9.50
2022-09-16T05:27:07.988Z,6.93
2022-09-16T05:28:29.354Z,7.29
2022-09-16T05:29:51.292Z,7.12
2022-09-16T05:31:17.883Z,8.91
2022-09-16T05:32:39.003Z,11.70
2022-09-16T05:34:06.973Z,7.82
2022-09-16T05:35:28.481Z,8.44
2022-09-16T05:36:49.956Z,7.82
2022-09-16T05:38:12.284Z,8.95
2022-09-16T05:39:33.894Z,7.48
2022-09-16T05:40:58.134Z,7.66
2022-09-16T05:42:20.221Z,7.74
2022-09-16T05:44:59.799Z,7.09
2022-09-16T05:46:21.810Z,11.38
2022-09-16T05:47:49.403Z,7.97
2022-09-16T05:49:10.838Z,6.86
2022-09-16T05:50:32.469Z,7.99
2022-09-16T05:51:53.896Z,8.29
2022-09-16T05:53:15.214Z,7.91
2022-09-16T05:54:36.623Z,7.03
2022-09-16T05:56:05.106Z,8.29
2022-09-16T05:57:26.168Z,6.84
2022-09-16T05:58:47.768Z,6.76
2022-09-16T06:00:11.551Z,6.71
2022-09-16T06:01:34.041Z,6.42
2022-09-16T06:02:55.777Z,6.74
2022-09-16T06:04:20.001Z,8.12
2022-09-16T06:05:45.569Z,8.58
2022-09-16T06:07:05.581Z,6.19
2022-09-16T06:09:38.973Z,7.86
2022-09-16T06:11:01.880Z,9.24
2022-09-16T06:13:45.283Z,7.41
2022-09-16T06:15:08.712Z,11.41
2022-09-16T06:16:31.096Z,7.48
2022-09-16T06:17:52.207Z,7.65
2022-09-16T06:19:15.026Z,9.47
2022-09-16T06:20:37.367Z,11.69
2022-09-16T06:21:59.158Z,10.42
2022-09-16T06:23:21.234Z,9.78
2022-09-16T06:24:42.310Z,7.69
2022-09-16T06:26:06.478Z,7.50
2022-09-16T06:27:27.920Z,7.40
2022-09-16T06:28:49.309Z,7.99
2022-09-16T06:30:11.197Z,6.34
2022-09-16T06:31:32.365Z,9.44
2022-09-16T06:32:53.853Z,7.58
2022-09-16T06:34:16.481Z,6.37
2022-09-16T06:35:37.563Z,7.46
2022-09-16T06:36:59.098Z,6.55
2022-09-16T06:38:20.544Z,8.94
2022-09-16T06:39:41.871Z,7.33
2022-09-16T06:41:04.509Z,5.07
2022-09-16T06:43:48.094Z,6.78
2022-09-16T06:45:10.103Z,7.57
2022-09-16T06:46:31.443Z,8.50
2022-09-16T06:47:52.813Z,8.81
2022-09-16T06:49:13.971Z,9.17
2022-09-16T06:50:35.771Z,10.15
2022-09-16T06:51:57.495Z,10.98
2022-09-16T06:53:18.754Z,8.26
2022-09-16T06:54:40.241Z,11.17
2022-09-16T06:56:03.345Z,8.65
2022-09-16T06:57:24.805Z,7.64
2022-09-16T07:00:27.503Z,7.67
2022-09-16T07:03:12.108Z,8.67
2022-09-16T07:04:33.302Z,10.58
2022-09-16T07:07:13.535Z,7.44
2022-09-16T07:08:36.115Z,10.44
2022-09-16T07:11:20.071Z,8.97
2022-09-16T07:12:41.362Z,7.43
2022-09-16T07:14:02.777Z,8.88
2022-09-16T07:15:24.694Z,7.22
2022-09-16T07:16:45.993Z,9.93
2022-09-16T07:18:07.174Z,10.19
2022-09-16T07:19:28.215Z,9.68
2022-09-16T07:20:50.266Z,10.46
2022-09-16T07:22:12.463Z,10.49
2022-09-16T07:23:36.042Z,8.98
2022-09-16T07:24:57.625Z,10.91
2022-09-16T07:26:22.939Z,11.09
2022-09-16T07:29:17.056Z,7.21
2022-09-16T07:30:38.649Z,9.12
2022-09-16T07:31:59.789Z,8.91
2022-09-16T07:33:21.629Z,9.28
2022-09-16T07:34:43.051Z,10.62
2022-09-16T07:36:06.913Z,11.67
2022-09-16T07:37:28.912Z,9.53
2022-09-16T07:38:50.622Z,11.03
2022-09-16T07:40:12.018Z,7.59
2022-09-16T07:41:35.404Z,11.19
2022-09-16T07:42:57.377Z,8.85
2022-09-16T07:44:18.977Z,8.72
2022-09-16T07:45:40.582Z,9.35
2022-09-16T07:47:01.866Z,11.42
2022-09-16T07:48:23.063Z,9.97
2022-09-16T07:49:44.512Z,9.33
2022-09-16T07:51:07.998Z,10.88
2022-09-16T07:52:29.180Z,8.64
2022-09-16T07:54:00.218Z,12.23
2022-09-16T07:55:22.207Z,10.41
2022-09-16T07:56:43.975Z,11.63
2022-09-16T07:58:05.016Z,9.69
2022-09-16T07:59:29.560Z,9.14
2022-09-16T08:00:52.688Z,10.33
2022-09-16T08:02:16.444Z,8.66
2022-09-16T08:03:39.005Z,8.68
2022-09-16T08:05:00.738Z,8.58
2022-09-16T08:06:24.477Z,8.57
2022-09-16T08:07:45.697Z,9.18
2022-09-16T08:09:15.639Z,9.42
2022-09-16T08:10:32.544Z,8.56
2022-09-16T08:13:15.414Z,6.88
2022-09-16T08:14:37.071Z,13.37
2022-09-16T08:17:15.792Z,7.61
2022-09-16T08:18:37.317Z,10.24
2022-09-16T08:19:58.756Z,10.80
2022-09-16T08:21:22.823Z,10.22
2022-09-16T08:22:43.991Z,15.14
2022-09-16T08:24:05.492Z,10.02
2022-09-16T08:25:28.122Z,11.23
2022-09-16T08:26:49.531Z,14.55
2022-09-16T08:28:14.459Z,9.74
2022-09-16T08:29:35.575Z,15.12
2022-09-16T08:31:01.086Z,10.13
2022-09-16T08:32:22.400Z,9.94
2022-09-16T08:33:43.643Z,8.51
2022-09-16T08:35:08.868Z,13.53
2022-09-16T08:36:30.831Z,7.88
2022-09-16T08:37:52.372Z,9.70
2022-09-16T08:39:13.713Z,13.07
2022-09-16T08:40:40.727Z,11.59
2022-09-16T08:44:06.723Z,9.48
2022-09-16T08:45:34.973Z,14.39
2022-09-16T08:47:00.150Z,13.87
2022-09-16T08:48:40.039Z,13.34
2022-09-16T08:50:04.400Z,14.37
2022-09-16T08:51:26.223Z,12.32
2022-09-16T08:52:47.593Z,13.70
2022-09-16T08:55:49.399Z,13.14
2022-09-16T08:57:16.938Z,11.26
2022-09-16T08:58:43.106Z,10.57
2022-09-16T09:00:08.845Z,10.91
2022-09-16T09:01:40.587Z,10.51
2022-09-16T09:04:30.244Z,17.82
2022-09-16T09:05:53.162Z,9.72
2022-09-16T09:07:18.081Z,10.40
2022-09-16T09:08:43.302Z,8.41
2022-09-16T09:10:14.859Z,15.42
2022-09-16T09:12:00.262Z,10.30
2022-09-16T09:13:37.664Z,12.83
2022-09-16T09:15:15.366Z,10.89
2022-09-16T09:16:47.022Z,10.87
2022-09-16T09:18:33.211Z,9.22
2022-09-16T09:20:04.444Z,13.79
2022-09-16T09:23:00.104Z,9.39
2022-09-16T09:24:56.483Z,8.44
2022-09-16T09:26:39.065Z,8.56
2022-09-16T09:28:13.467Z,11.41
2022-09-16T09:29:51.765Z,9.19
2022-09-16T09:31:32.862Z,7.51
2022-09-16T09:33:34.314Z,9.88
2022-09-16T09:35:04.720Z,9.54
2022-09-16T09:36:36.067Z,6.79
2022-09-16T09:38:28.584Z,6.23
2022-09-16T09:40:14.875Z,10.19
2022-09-16T09:41:39.070Z,8.22
2022-09-16T09:43:15.456Z,8.99
2022-09-16T09:44:59.827Z,8.72
2022-09-16T09:46:24.290Z,9.42
2022-09-16T09:47:49.180Z,11.65
2022-09-16T09:49:19.835Z,4.74
2022-09-16T09:50:48.442Z,5.98
2022-09-16T09:52:22.462Z,7.65
2022-09-16T09:53:49.584Z,8.96
2022-09-16T09:56:36.130Z,5.56
2022-09-16T09:58:15.999Z,9.24
2022-09-16T10:00:07.084Z,3.93
2022-09-16T10:01:29.314Z,5.26
2022-09-16T10:02:50.916Z,4.61
2022-09-16T10:04:14.161Z,7.02
2022-09-16T10:05:35.731Z,8.33
2022-09-16T10:06:57.558Z,6.17
2022-09-16T10:08:28.732Z,4.97
2022-09-16T10:09:56.469Z,5.46
2022-09-16T10:11:23.135Z,6.21
2022-09-16T10:12:44.864Z,4.92
2022-09-16T10:14:08.153Z,8.98
2022-09-16T10:15:30.074Z,8.08
2022-09-16T10:16:52.278Z,5.63
2022-09-16T10:18:28.377Z,5.89
2022-09-16T10:19:57.643Z,4.97
2022-09-16T10:21:20.161Z,8.74
2022-09-16T10:22:41.360Z,3.94
2022-09-16T10:24:04.702Z,3.51
2022-09-16T10:25:26.176Z,4.34
2022-09-16T10:26:47.935Z,6.39
2022-09-16T10:28:20.687Z,5.80
2022-09-16T10:31:05.758Z,4.28
2022-09-16T10:32:27.515Z,4.23
2022-09-16T10:33:48.953Z,5.40
2022-09-16T10:36:36.031Z,5.07
2022-09-16T10:39:24.889Z,7.47
2022-09-16T10:40:55.489Z,7.67
2022-09-16T10:43:31.930Z,5.26
2022-09-16T10:44:55.722Z,6.73
2022-09-16T10:46:17.997Z,4.87
2022-09-16T10:47:39.212Z,4.41
2022-09-16T10:49:03.630Z,4.49
2022-09-16T10:50:25.359Z,4.82
2022-09-16T10:51:46.687Z,7.71
2022-09-16T10:53:28.833Z,5.86
2022-09-16T10:54:50.157Z,3.93
2022-09-16T10:56:19.882Z,5.03
2022-09-16T10:57:42.034Z,4.80
2022-09-16T10:59:11.037Z,5.66
2022-09-16T11:00:51.219Z,4.16
2022-09-16T11:02:51.977Z,6.07
2022-09-16T11:04:29.541Z,4.71
2022-09-16T11:06:23.588Z,5.42
2022-09-16T11:09:37.324Z,8.23
2022-09-16T11:12:20.182Z,4.21
2022-09-16T11:13:57.654Z,11.66
2022-09-16T11:15:34.642Z,8.27
2022-09-16T11:17:00.209Z,6.36
2022-09-16T11:18:41.315Z,3.41
2022-09-16T11:20:18.717Z,4.45
2022-09-16T11:21:52.488Z,4.33
2022-09-16T11:23:23.614Z,4.32
2022-09-16T11:24:57.605Z,5.50
2022-09-16T11:26:41.220Z,6.40
2022-09-16T11:28:17.979Z,5.18
2022-09-16T11:29:55.423Z,8.16
2022-09-16T11:31:40.340Z,5.77
2022-09-16T11:36:23.346Z,5.59
2022-09-16T11:38:08.298Z,4.58
2022-09-16T11:42:23.215Z,4.23
2022-09-16T11:44:03.074Z,5.19
2022-09-16T11:45:54.817Z,6.56
2022-09-16T11:47:25.996Z,8.58
2022-09-16T11:49:12.505Z,8.65
2022-09-16T11:52:02.903Z,5.86
2022-09-16T11:53:47.660Z,7.73
2022-09-16T11:55:43.132Z,4.76
2022-09-16T11:57:13.175Z,7.02
2022-09-16T12:00:15.310Z,3.83
2022-09-16T12:04:34.898Z,7.79
2022-09-16T12:06:02.614Z,7.05
2022-09-16T12:07:30.621Z,5.53
2022-09-16T12:09:05.466Z,8.36
2022-09-16T12:11:46.116Z,7.28
2022-09-16T12:13:11.230Z,6.83
2022-09-16T12:14:38.416Z,8.47
2022-09-16T12:17:21.040Z,8.76
2022-09-16T12:18:45.502Z,6.86
2022-09-16T12:23:08.845Z,5.93
2022-09-16T12:24:48.995Z,9.35
2022-09-16T12:26:13.654Z,4.64
2022-09-16T12:29:48.063Z,6.29
2022-09-16T12:33:08.214Z,6.22
2022-09-16T12:34:36.241Z,5.77
2022-09-16T12:37:54.315Z,7.57
2022-09-16T12:39:15.893Z,5.08
2022-09-16T12:40:47.720Z,8.40
2022-09-16T12:44:23.372Z,6.07
2022-09-16T12:45:47.602Z,6.28
2022-09-16T12:47:13.158Z,12.51
2022-09-16T12:48:56.403Z,8.34
2022-09-16T12:51:50.848Z,6.06
2022-09-16T12:53:32.278Z,5.79
2022-09-16T12:55:07.757Z,7.93
2022-09-16T12:56:34.493Z,6.66
2022-09-16T12:58:20.688Z,4.59
2022-09-16T13:01:25.726Z,10.31
2022-09-16T13:02:58.533Z,6.32
2022-09-16T13:04:27.264Z,7.36
2022-09-16T13:05:50.578Z,7.38
2022-09-16T13:07:33.417Z,6.37
2022-09-16T13:08:55.523Z,4.66
2022-09-16T13:10:40.632Z,7.20
2022-09-16T13:12:35.326Z,6.73
2022-09-16T13:13:32.744Z,5.72
2022-09-16T13:14:56.417Z,6.56
2022-09-16T13:16:36.595Z,6.01
2022-09-16T13:18:16.891Z,5.89
2022-09-16T13:19:53.409Z,9.99
2022-09-16T13:23:16.732Z,5.99
2022-09-16T13:24:39.908Z,4.48
2022-09-16T13:26:06.522Z,4.37
2022-09-16T13:27:34.250Z,5.81
2022-09-16T13:28:55.591Z,7.02
2022-09-16T13:31:47.311Z,5.43
2022-09-16T13:33:12.763Z,6.67
2022-09-16T13:34:34.470Z,4.27
2022-09-16T13:36:25.416Z,4.79
2022-09-16T13:37:53.833Z,6.47
2022-09-16T13:39:34.555Z,5.71
2022-09-16T13:42:28.206Z,14.54
2022-09-16T13:43:51.173Z,8.29
2022-09-16T13:45:38.260Z,3.62
2022-09-16T13:47:12.613Z,4.16
2022-09-16T13:50:12.713Z,6.84
2022-09-16T13:51:45.514Z,10.32
2022-09-16T13:53:29.464Z,11.73
2022-09-16T13:56:41.006Z,11.62
2022-09-16T14:00:03.162Z,5.51
2022-09-16T14:03:24.751Z,4.99
2022-09-16T14:05:05.535Z,13.01
2022-09-16T14:06:52.655Z,8.84
2022-09-16T14:08:23.942Z,6.17
2022-09-16T14:09:59.975Z,5.19
2022-09-16T14:11:37.470Z,6.21
2022-09-16T14:13:13.034Z,10.04
2022-09-16T14:14:50.087Z,6.44
2022-09-16T14:15:58.280Z,9.04
2022-09-16T14:18:47.012Z,6.26
2022-09-16T14:20:14.817Z,6.24
2022-09-16T14:21:36.455Z,6.80
2022-09-16T14:23:02.696Z,5.28
2022-09-16T14:24:24.431Z,3.58
2022-09-16T14:25:46.118Z,7.05
2022-09-16T14:54:48.204Z,13.09
2022-09-16T15:08:16.183Z,6.22
2022-09-16T15:10:56.703Z,6.13
2022-09-16T15:14:10.578Z,3.93
2022-09-16T15:15:32.417Z,4.42
2022-09-16T15:18:11.638Z,6.07
2022-09-16T15:19:37.320Z,8.71
2022-09-16T15:21:05.547Z,4.87
2022-09-16T15:22:27.015Z,5.00
2022-09-16T15:23:50.272Z,3.94
2022-09-16T15:25:22.820Z,6.86
2022-09-16T15:26:44.596Z,6.13
2022-09-16T15:28:09.523Z,5.97
2022-09-16T15:29:32.559Z,5.19
2022-09-16T15:30:54.726Z,4.66
2022-09-16T15:32:20.445Z,6.07
2022-09-16T15:33:41.659Z,5.18
2022-09-16T15:36:41.200Z,6.62
2022-09-16T15:38:11.711Z,5.57
2022-09-16T15:39:34.702Z,5.08
2022-09-16T15:41:05.432Z,6.38
2022-09-16T15:42:26.850Z,6.12
2022-09-16T15:43:48.156Z,7.72
2022-09-16T15:45:17.846Z,5.47
2022-09-16T15:46:39.038Z,5.63
2022-09-16T18:27:24.799Z,15.02
2022-09-16T18:29:08.675Z,15.76
2022-09-16T18:30:14.791Z,19.62
2022-09-16T18:31:36.762Z,18.16
2022-09-16T18:32:58.374Z,14.82
2022-09-16T18:34:19.426Z,18.14
2022-09-16T18:35:41.115Z,17.78
2022-09-16T18:37:02.603Z,14.67
2022-09-16T18:38:23.982Z,16.28
2022-09-16T18:39:46.562Z,14.17
2022-09-16T18:41:16.657Z,16.59
2022-09-16T18:42:38.536Z,16.93
2022-09-16T18:44:01.811Z,25.35
2022-09-16T18:45:26.133Z,18.73
2022-09-16T18:46:47.627Z,21.31
2022-09-16T18:49:24.781Z,20.72
2022-09-16T18:50:47.536Z,21.62
2022-09-16T18:52:08.929Z,27.64
2022-09-16T18:53:31.035Z,30.68
2022-09-16T18:54:52.979Z,19.73
2022-09-16T18:56:17.197Z,13.90
2022-09-16T18:57:38.461Z,19.83
2022-09-16T18:59:24.036Z,16.01
2022-09-16T19:00:34.661Z,16.87
2022-09-16T19:01:57.755Z,15.71
2022-09-16T19:03:19.172Z,19.06
2022-09-16T19:04:41.398Z,18.67
2022-09-16T19:06:02.616Z,12.66
2022-09-16T19:07:27.899Z,22.19
2022-09-16T19:08:46.758Z,17.86
2022-09-16T19:10:09.199Z,16.78
2022-09-16T19:11:30.547Z,14.98
2022-09-16T19:12:51.988Z,14.86
2022-09-16T19:14:13.837Z,17.39
2022-09-16T19:15:35.305Z,18.37
2022-09-16T19:16:56.712Z,15.88
2022-09-16T19:18:18.206Z,14.03
2022-09-16T19:19:39.246Z,12.67
2022-09-16T19:21:01.299Z,15.73
2022-09-16T19:22:22.626Z,14.41
2022-09-16T19:23:45.402Z,13.41
2022-09-16T19:25:08.215Z,17.96
2022-09-16T19:26:32.850Z,13.35
2022-09-16T19:27:55.018Z,12.21
2022-09-16T19:29:18.613Z,13.25
2022-09-16T19:30:40.273Z,12.08
2022-09-16T19:32:02.338Z,11.83
2022-09-16T19:33:23.995Z,12.64
2022-09-16T19:34:46.405Z,17.06
2022-09-16T19:36:16.784Z,16.49
2022-09-16T19:37:38.481Z,17.11
2022-09-16T19:39:01.927Z,16.16
2022-09-16T19:40:23.288Z,15.63
2022-09-16T19:41:46.430Z,14.79
2022-09-16T19:43:07.547Z,15.79
2022-09-16T19:44:29.154Z,16.46
2022-09-16T19:45:50.897Z,18.72
2022-09-16T19:47:13.378Z,13.18
2022-09-16T19:48:35.570Z,14.48
2022-09-16T19:49:57.576Z,15.43
2022-09-16T19:51:20.465Z,12.99
2022-09-16T19:52:41.815Z,15.58
2022-09-16T19:54:03.353Z,17.09
2022-09-16T19:55:24.317Z,17.31
2022-09-16T19:56:50.380Z,16.86
2022-09-16T19:58:10.418Z,26.32
2022-09-16T19:59:31.924Z,19.89
2022-09-16T20:00:58.582Z,19.06
2022-09-16T20:02:23.608Z,16.59
2022-09-16T20:03:44.804Z,20.42
2022-09-16T20:05:10.590Z,18.06
2022-09-16T20:07:46.554Z,15.51
2022-09-16T20:09:10.813Z,17.41
2022-09-16T20:10:38.366Z,19.71
2022-09-16T20:11:59.683Z,22.03
2022-09-16T20:13:21.233Z,19.62
2022-09-16T20:14:42.638Z,17.68
2022-09-16T20:16:05.671Z,14.69
2022-09-16T20:18:50.143Z,17.43
2022-09-16T20:20:11.940Z,18.32
2022-09-16T20:21:34.156Z,14.32
2022-09-16T20:22:57.452Z,10.98
2022-09-16T20:24:19.870Z,12.87
2022-09-16T20:25:42.518Z,17.02
2022-09-16T20:27:04.650Z,15.35
2022-09-16T20:28:31.245Z,14.07
2022-09-16T20:29:52.518Z,15.04
2022-09-16T20:32:26.128Z,17.33
2022-09-16T20:33:47.687Z,13.15
2022-09-16T20:35:11.024Z,19.50
2022-09-16T20:36:35.886Z,17.08
2022-09-16T20:37:57.231Z,13.28
2022-09-16T20:39:18.686Z,13.22
2022-09-16T20:40:39.795Z,13.68
2022-09-16T20:42:01.839Z,11.42
2022-09-16T20:43:23.132Z,9.81
2022-09-16T20:44:48.895Z,11.98
2022-09-16T20:46:15.353Z,10.91
2022-09-16T20:47:36.653Z,10.17
2022-09-16T20:48:59.045Z,9.36
2022-09-16T20:50:35.364Z,9.16
2022-09-16T20:51:56.371Z,11.52
2022-09-16T20:53:17.891Z,10.04
2022-09-16T20:54:40.129Z,9.52
2022-09-16T20:56:05.851Z,9.79
2022-09-16T20:57:27.012Z,10.94
2022-09-16T20:58:49.174Z,10.86
2022-09-16T21:00:14.021Z,13.61
2022-09-16T21:01:36.123Z,14.21
2022-09-16T21:02:59.272Z,13.79
2022-09-16T21:04:21.751Z,12.64
2022-09-16T21:05:43.321Z,11.93
2022-09-16T21:07:04.709Z,10.69
2022-09-16T21:08:25.906Z,11.44
2022-09-16T21:09:47.372Z,9.76
2022-09-16T21:11:12.327Z,11.79
2022-09-16T21:15:07.686Z,10.75
2022-09-16T21:16:30.247Z,10.98
2022-09-16T21:17:51.578Z,13.24
2022-09-16T21:19:12.807Z,14.33
2022-09-16T21:20:37.013Z,11.78
2022-09-16T21:21:58.756Z,12.09
2022-09-16T21:23:21.814Z,14.22
2022-09-16T21:24:43.444Z,12.04
2022-09-16T21:26:20.029Z,11.74
2022-09-16T21:27:43.222Z,16.08
2022-09-16T21:29:06.504Z,11.93
2022-09-16T21:30:27.781Z,14.11
2022-09-16T21:31:49.337Z,15.23
2022-09-16T21:33:12.623Z,12.81
2022-09-16T21:35:55.827Z,13.84
2022-09-16T21:37:18.654Z,15.79
2022-09-16T21:38:43.536Z,17.14
2022-09-16T21:40:07.298Z,11.87
2022-09-16T21:41:28.732Z,10.31
2022-09-16T21:42:49.992Z,10.52
2022-09-16T21:44:12.034Z,11.38
2022-09-16T21:45:33.290Z,12.11
2022-09-16T21:46:54.812Z,9.36
2022-09-16T21:48:16.295Z,10.25
2022-09-16T21:49:38.154Z,9.24
2022-09-16T21:52:18.253Z,9.64
2022-09-16T21:53:39.924Z,10.59
2022-09-16T21:55:04.596Z,10.95
2022-09-16T21:56:26.556Z,10.45
2022-09-16T21:57:47.728Z,10.49
2022-09-16T21:59:09.397Z,9.83
2022-09-16T22:00:31.259Z,12.71
2022-09-16T22:01:52.499Z,9.53
2022-09-16T22:03:14.616Z,9.12
2022-09-16T22:04:36.203Z,11.35
2022-09-16T22:05:57.944Z,11.46
2022-09-16T22:07:19.526Z,14.97
2022-09-16T22:08:48.587Z,12.84
2022-09-16T22:10:08.877Z,13.31
2022-09-16T22:11:31.347Z,7.61
2022-09-16T22:12:52.682Z,11.49
2022-09-16T22:14:14.467Z,12.22
2022-09-16T22:15:35.886Z,12.41
2022-09-16T22:16:57.448Z,12.51
2022-09-16T22:18:18.776Z,12.44
2022-09-16T22:19:40.915Z,9.87
2022-09-16T22:21:10.276Z,7.42
2022-09-16T22:22:31.831Z,13.57
2022-09-16T22:23:53.146Z,8.15
2022-09-16T22:25:16.373Z,8.13
2022-09-16T22:26:37.821Z,7.37
2022-09-16T22:27:58.900Z,7.19
2022-09-16T22:30:29.267Z,5.66
2022-09-16T22:31:50.966Z,6.43
2022-09-16T22:33:12.379Z,6.56
2022-09-16T22:34:36.525Z,5.38
2022-09-16T22:36:06.456Z,6.75
2022-09-16T22:37:28.127Z,6.68
2022-09-16T22:38:51.651Z,5.10
2022-09-16T22:40:13.056Z,7.16
2022-09-16T22:41:34.613Z,6.69
2022-09-16T22:42:56.220Z,5.61
2022-09-16T22:44:17.580Z,5.22
2022-09-16T22:45:39.163Z,5.53
2022-09-16T22:47:01.433Z,7.82
2022-09-16T22:48:22.894Z,6.68
2022-09-16T22:49:44.192Z,5.18
2022-09-16T22:51:06.463Z,5.10
2022-09-16T22:52:28.938Z,5.81
2022-09-16T22:53:50.005Z,5.69
2022-09-16T22:55:11.950Z,5.97
2022-09-16T22:56:33.523Z,5.03
2022-09-16T22:57:54.402Z,5.49
2022-09-16T23:00:30.602Z,7.36
2022-09-16T23:01:52.782Z,5.51
2022-09-16T23:03:14.118Z,7.43
2022-09-16T23:04:35.549Z,7.24
2022-09-16T23:05:58.365Z,6.23
2022-09-16T23:07:19.435Z,6.68
2022-09-16T23:08:42.453Z,6.52
2022-09-16T23:11:30.141Z,5.30
2022-09-16T23:12:51.391Z,4.23
2022-09-16T23:14:14.259Z,3.98
2022-09-16T23:15:36.826Z,5.42
2022-09-16T23:16:57.992Z,4.26
2022-09-16T23:18:20.218Z,4.02
2022-09-16T23:19:41.461Z,3.32
2022-09-16T23:21:05.000Z,4.27
2022-09-16T23:23:48.954Z,7.69
2022-09-16T23:25:10.391Z,6.00
2022-09-16T23:26:34.015Z,4.86
2022-09-16T23:27:55.161Z,6.96
2022-09-16T23:29:16.921Z,4.73
2022-09-16T23:30:38.392Z,4.24
2022-09-16T23:32:00.013Z,4.36
2022-09-16T23:33:21.436Z,4.93
2022-09-16T23:34:43.055Z,4.66
2022-09-16T23:36:05.078Z,4.51
2022-09-16T23:37:26.420Z,4.09
2022-09-16T23:39:57.140Z,5.81
2022-09-16T23:41:20.959Z,4.64
2022-09-16T23:42:42.122Z,6.91
2022-09-16T23:44:03.828Z,4.11
2022-09-16T23:45:25.827Z,5.18
2022-09-16T23:46:47.693Z,3.73
2022-09-16T23:48:08.890Z,3.77
2022-09-16T23:49:30.598Z,4.68
2022-09-16T23:50:51.842Z,7.14
2022-09-16T23:52:13.098Z,5.01
2022-09-16T23:53:34.754Z,4.96
2022-09-16T23:54:56.081Z,5.03
2022-09-16T23:56:17.996Z,4.59
2022-09-16T23:57:39.261Z,4.17
2022-09-16T23:59:00.972Z,5.69
